createdAt,value
2016-11-17T00:03:11.901Z,42.9
2016-11-17T00:08:16.005Z,42.8
2016-11-17T00:13:20.098Z,42.9
2016-11-17T00:18:24.184Z,42.8
2016-11-17T00:23:28.275Z,42.8
2016-11-17T00:28:32.699Z,42.8
2016-11-17T00:33:37.114Z,42.8
2016-11-17T00:38:41.540Z,42.7
2016-11-17T00:43:45.642Z,42.7
2016-11-17T00:48:49.739Z,42.7
2016-11-17T00:53:54.829Z,42.7
2016-11-17T00:58:59.587Z,42.7
2016-11-17T01:04:04.010Z,42.7
2016-11-17T01:09:08.424Z,42.7
2016-11-17T01:14:12.510Z,42.7
2016-11-17T01:19:16.601Z,42.7
2016-11-17T01:24:21.364Z,42.6
2016-11-17T01:29:25.449Z,42.6
2016-11-17T01:34:29.903Z,42.6
2016-11-17T01:39:34.345Z,42.6
2016-11-17T01:44:38.441Z,42.5
2016-11-17T01:49:42.863Z,42.6
2016-11-17T01:54:47.623Z,42.5
2016-11-17T01:59:51.707Z,42.4
2016-11-17T02:04:56.128Z,42.3
2016-11-17T02:10:00.229Z,42.3
2016-11-17T02:15:04.664Z,42.4
2016-11-17T02:20:08.739Z,42.3
2016-11-17T02:25:13.169Z,42.3
2016-11-17T02:30:17.271Z,42.3
2016-11-17T02:35:21.379Z,42.4
2016-11-17T02:40:25.828Z,42.3
2016-11-17T02:45:29.906Z,42.3
2016-11-17T02:50:34.332Z,42.3
2016-11-17T02:55:38.413Z,42.3
2016-11-17T03:00:42.496Z,42.2
2016-11-17T03:05:46.914Z,42.2
2016-11-17T03:10:50.995Z,42.2
2016-11-17T03:15:55.080Z,42.2
2016-11-17T03:20:59.834Z,42.2
2016-11-17T03:26:03.921Z,42.2
2016-11-17T03:31:08.007Z,42.2
2016-11-17T03:36:12.123Z,42.2
2016-11-17T03:41:16.222Z,42.2
2016-11-17T03:46:20.317Z,42.1
2016-11-17T03:51:24.400Z,42.1
2016-11-17T03:56:28.825Z,42
2016-11-17T04:01:32.910Z,42
2016-11-17T04:06:36.994Z,42
2016-11-17T04:11:41.421Z,42
2016-11-17T04:16:46.184Z,42
2016-11-17T04:21:50.598Z,42
2016-11-17T04:26:55.053Z,42
2016-11-17T04:31:59.797Z,42
2016-11-17T04:37:04.230Z,42
2016-11-17T04:42:08.985Z,42
2016-11-17T04:47:13.076Z,42
2016-11-17T04:52:17.500Z,42
2016-11-17T04:57:22.261Z,41.9
2016-11-17T05:02:26.364Z,41.9
2016-11-17T05:07:30.788Z,41.8
2016-11-17T05:12:34.881Z,41.8
2016-11-17T05:17:39.297Z,41.7
2016-11-17T05:22:43.384Z,41.7
2016-11-17T05:27:47.516Z,41.6
2016-11-17T05:32:51.988Z,41.5
2016-11-17T05:37:56.095Z,41.5
2016-11-17T05:43:00.516Z,41.6
2016-11-17T05:48:04.940Z,41.6
2016-11-17T05:53:09.355Z,42
2016-11-17T05:58:13.446Z,43
2016-11-17T06:03:17.857Z,43.7
2016-11-17T06:08:21.948Z,43.8
2016-11-17T06:13:26.032Z,43.9
2016-11-17T06:18:30.458Z,44
2016-11-17T06:23:34.885Z,44
2016-11-17T06:28:39.003Z,43.8
2016-11-17T06:33:43.081Z,43.5
2016-11-17T06:38:47.506Z,43.1
2016-11-17T06:43:51.926Z,42.6
2016-11-17T06:48:56.685Z,42.2
2016-11-17T06:54:00.773Z,42
2016-11-17T06:59:04.943Z,41.8
2016-11-17T07:04:09.383Z,41.8
2016-11-17T07:09:14.365Z,41.8
2016-11-17T07:14:18.461Z,41.7
2016-11-17T07:19:22.557Z,41.9
2016-11-17T07:24:27.316Z,42.7
2016-11-17T07:29:31.740Z,43
2016-11-17T07:34:35.840Z,43
2016-11-17T07:39:40.266Z,42.7
2016-11-17T07:44:44.365Z,42.5
2016-11-17T07:49:48.458Z,42.3
2016-11-17T07:54:52.547Z,42.2
2016-11-17T07:59:56.648Z,42.1
2016-11-17T08:05:00.740Z,42
2016-11-17T08:10:04.829Z,42
2016-11-17T08:15:08.921Z,41.9
2016-11-17T08:20:13.343Z,41.8
2016-11-17T08:25:17.434Z,41.7
2016-11-17T08:30:21.523Z,41.6
2016-11-17T08:35:26.281Z,41.5
2016-11-17T08:40:30.369Z,41.4
2016-11-17T08:45:34.460Z,41.4
2016-11-17T08:50:38.893Z,41.2
2016-11-17T08:55:42.983Z,41.1
2016-11-17T09:00:47.074Z,41
2016-11-17T09:05:51.499Z,41
2016-11-17T09:10:55.926Z,41.1
2016-11-17T09:16:00.346Z,41
2016-11-17T09:21:04.437Z,41
2016-11-17T09:26:08.531Z,41
2016-11-17T09:31:13.087Z,41
2016-11-17T09:36:17.716Z,40.9
2016-11-17T09:41:22.190Z,41
2016-11-17T09:46:26.314Z,40.9
2016-11-17T09:51:30.454Z,40.8
2016-11-17T09:56:34.554Z,40.7
2016-11-17T10:01:38.976Z,40.7
2016-11-17T10:06:43.176Z,40.7
2016-11-17T10:11:47.359Z,40.7
2016-11-17T10:16:51.445Z,40.6
2016-11-17T10:21:55.876Z,40.6
2016-11-17T10:26:59.973Z,41
2016-11-17T10:32:04.395Z,41.4
2016-11-17T10:37:08.490Z,41.4
2016-11-17T10:42:12.582Z,41.2
2016-11-17T10:47:16.676Z,41
2016-11-17T10:52:20.773Z,41
2016-11-17T10:57:24.864Z,40.8
2016-11-17T11:02:29.293Z,40.7
2016-11-17T11:07:33.724Z,40.6
2016-11-17T11:12:38.490Z,40.6
2016-11-17T11:17:42.585Z,40.5
2016-11-17T11:22:46.680Z,40.5
2016-11-17T11:27:50.924Z,40.5
2016-11-17T11:32:55.686Z,40.6
2016-11-17T11:37:59.782Z,40.8
2016-11-17T11:43:03.879Z,40.9
2016-11-17T11:48:07.969Z,40.9
2016-11-17T11:53:12.394Z,41
2016-11-17T11:58:17.179Z,41
2016-11-17T12:03:21.263Z,41
2016-11-17T12:08:25.695Z,41
2016-11-17T12:13:29.784Z,41.1
2016-11-17T12:18:34.216Z,41
2016-11-17T12:23:38.639Z,41.1
2016-11-17T12:28:43.072Z,41.1
2016-11-17T12:33:47.827Z,41.2
2016-11-17T12:38:52.594Z,41.3
2016-11-17T12:43:56.682Z,41.4
2016-11-17T12:49:01.108Z,41.4
2016-11-17T12:54:05.879Z,41.5
2016-11-17T12:59:10.315Z,41.4
2016-11-17T13:04:14.477Z,41.3
2016-11-17T13:09:18.923Z,41.7
2016-11-17T13:14:23.354Z,41.8
2016-11-17T13:19:27.450Z,41.7
2016-11-17T13:24:31.546Z,41.7
2016-11-17T13:29:35.649Z,41.7
2016-11-17T13:34:39.745Z,41.6
2016-11-17T13:39:43.842Z,41.5
2016-11-17T13:44:48.551Z,41.4
2016-11-17T13:49:52.642Z,41.2
2016-11-17T13:54:56.736Z,41.1
2016-11-17T14:00:01.164Z,41
2016-11-17T14:05:05.252Z,40.7
2016-11-17T14:10:09.366Z,40.6
2016-11-17T14:15:13.785Z,40.4
2016-11-17T14:20:18.559Z,40.2
2016-11-17T14:25:23.321Z,40
2016-11-17T14:30:27.744Z,39.8
2016-11-17T14:35:32.169Z,39.7
2016-11-17T14:40:36.261Z,39.6
2016-11-17T14:45:40.353Z,39.5
2016-11-17T14:50:44.812Z,39.5
2016-11-17T14:55:49.043Z,39.5
2016-11-17T15:00:53.082Z,39.3
2016-11-17T15:05:57.173Z,39.4
2016-11-17T15:11:01.307Z,39.2
2016-11-17T15:16:05.744Z,39.2
2016-11-17T15:21:10.190Z,39.1
2016-11-17T15:26:14.624Z,39.1
2016-11-17T15:31:19.387Z,38.9
2016-11-17T15:36:23.668Z,38.9
2016-11-17T15:41:27.757Z,39
2016-11-17T15:46:32.518Z,39.2
2016-11-17T15:51:36.941Z,39.2
2016-11-17T15:56:41.035Z,39.2
2016-11-17T16:01:45.461Z,39.3
2016-11-17T16:06:49.547Z,39.4
2016-11-17T16:11:53.634Z,39.7
2016-11-17T16:16:58.397Z,39.7
2016-11-17T16:22:02.489Z,39.5
2016-11-17T16:27:06.577Z,39.4
2016-11-17T16:32:10.691Z,39.6
2016-11-17T16:37:14.803Z,39.5
2016-11-17T16:42:18.913Z,39.4
2016-11-17T16:47:22.998Z,39.4
2016-11-17T16:52:27.762Z,39.3
2016-11-17T16:57:31.843Z,39.4
2016-11-17T17:02:35.946Z,39.4
2016-11-17T17:07:40.034Z,39.5
2016-11-17T17:12:44.124Z,39.6
2016-11-17T17:17:48.234Z,39.5
2016-11-17T17:22:52.669Z,36.4
2016-11-17T17:27:56.796Z,35.3
2016-11-17T17:33:00.896Z,35.4
2016-11-17T17:38:05.005Z,37
2016-11-17T17:43:09.422Z,38.8
2016-11-17T17:48:13.852Z,39.3
2016-11-17T17:53:18.285Z,39.4
2016-11-17T17:58:22.381Z,39.5
2016-11-17T18:03:26.473Z,39.5
2016-11-17T18:08:30.904Z,39.6
2016-11-17T18:13:34.993Z,39.4
2016-11-17T18:18:39.082Z,39.4
2016-11-17T18:23:43.173Z,39.3
2016-11-17T18:28:47.597Z,39.4
2016-11-17T18:33:51.708Z,39.4
2016-11-17T18:38:55.827Z,39.8
2016-11-17T18:44:00.260Z,39.7
2016-11-17T18:49:04.687Z,39.7
2016-11-17T18:54:08.774Z,39.9
2016-11-17T18:59:13.205Z,40.1
2016-11-17T19:04:17.972Z,40.3
2016-11-17T19:09:22.069Z,40.3
2016-11-17T19:14:26.495Z,40
2016-11-17T19:19:30.916Z,39.8
2016-11-17T19:24:35.345Z,39.8
2016-11-17T19:29:39.546Z,39.9
2016-11-17T19:34:43.688Z,40.1
2016-11-17T19:39:48.145Z,40
2016-11-17T19:44:52.924Z,40
2016-11-17T19:49:57.353Z,40.2
2016-11-17T19:55:01.440Z,40.2
2016-11-17T20:00:06.201Z,40.6
2016-11-17T20:05:10.291Z,40.9
2016-11-17T20:10:14.712Z,40.7
2016-11-17T20:15:19.131Z,40.8
2016-11-17T20:20:23.587Z,40.9
2016-11-17T20:25:28.346Z,41.1
2016-11-17T20:30:32.441Z,40.8
2016-11-17T20:35:36.530Z,40.8
2016-11-17T20:40:41.063Z,40.9
2016-11-17T20:45:45.172Z,40.9
2016-11-17T20:50:49.269Z,40.7
2016-11-17T20:55:53.352Z,40.9
2016-11-17T21:00:57.447Z,40.9
2016-11-17T21:06:01.535Z,40.9
2016-11-17T21:11:05.628Z,41
2016-11-17T21:16:10.088Z,40.9
2016-11-17T21:21:14.191Z,41.2
2016-11-17T21:26:18.283Z,41.4
2016-11-17T21:31:22.373Z,41.2
2016-11-17T21:36:26.800Z,41.3
2016-11-17T21:41:31.236Z,41.4
2016-11-17T21:46:35.379Z,41.4
2016-11-17T21:51:39.828Z,40.9
2016-11-17T21:56:43.917Z,40.7
2016-11-17T22:01:48.009Z,40.5
2016-11-17T22:06:52.445Z,40.5
2016-11-17T22:11:56.539Z,40.5
2016-11-17T22:17:00.627Z,40.5
2016-11-17T22:22:04.715Z,40.4
2016-11-17T22:27:08.812Z,40.4
2016-11-17T22:32:13.246Z,40.4
2016-11-17T22:37:17.667Z,40.4
2016-11-17T22:42:22.101Z,40.4
2016-11-17T22:47:26.188Z,40.5
2016-11-17T22:52:30.279Z,40.5
2016-11-17T22:57:34.372Z,40.5
2016-11-17T23:02:38.473Z,40.5
2016-11-17T23:07:42.890Z,40.5
2016-11-17T23:12:47.315Z,40.5
2016-11-17T23:17:51.402Z,40.5
2016-11-17T23:22:55.491Z,40.6
2016-11-17T23:27:59.915Z,40.6
2016-11-17T23:33:04.004Z,40.6
2016-11-17T23:38:08.090Z,40.6
2016-11-17T23:43:12.517Z,40.6
2016-11-17T23:48:16.613Z,40.6
2016-11-17T23:53:21.045Z,40.6
2016-11-17T23:58:25.140Z,40.6
